createdAt,value
2023-11-06T00:00:22.671Z,10.01
2023-11-06T00:03:11.362Z,10.02
2023-11-06T00:05:39.655Z,10.02
2023-11-06T00:08:08.042Z,10.03
2023-11-06T00:10:36.161Z,10.04
2023-11-06T00:13:05.488Z,10.04
2023-11-06T00:15:33.724Z,10.04
2023-11-06T00:18:01.881Z,10.05
2023-11-06T00:20:30.137Z,10.06
2023-11-06T00:22:58.302Z,10.07
2023-11-06T00:25:27.227Z,10.08
2023-11-06T00:27:57.152Z,10.09
2023-11-06T00:30:25.284Z,10.08
2023-11-06T00:32:53.556Z,10.10
2023-11-06T00:35:21.785Z,10.10
2023-11-06T00:37:50.029Z,10.10
2023-11-06T00:40:19.258Z,10.11
2023-11-06T00:42:47.462Z,10.11
2023-11-06T00:45:15.859Z,10.11
2023-11-06T00:47:44.000Z,10.11
2023-11-06T00:50:12.612Z,10.10
2023-11-06T00:52:41.076Z,10.10
2023-11-06T00:55:09.488Z,10.11
2023-11-06T00:57:37.653Z,10.11
2023-11-06T01:00:06.224Z,10.11
2023-11-06T01:02:34.451Z,10.11
2023-11-06T01:05:03.043Z,10.12
2023-11-06T01:07:32.509Z,10.13
2023-11-06T01:10:01.212Z,10.14
2023-11-06T01:12:29.687Z,10.17
2023-11-06T01:14:58.640Z,10.19
2023-11-06T01:17:27.016Z,10.20
2023-11-06T01:19:55.202Z,10.22
2023-11-06T01:22:31.239Z,10.22
2023-11-06T01:25:07.668Z,10.22
2023-11-06T01:27:35.778Z,10.23
2023-11-06T01:30:05.258Z,10.23
2023-11-06T01:32:33.593Z,10.23
2023-11-06T01:35:01.845Z,10.24
2023-11-06T01:37:30.736Z,10.24
2023-11-06T01:39:58.927Z,10.24
2023-11-06T01:42:28.104Z,10.24
2023-11-06T01:44:56.144Z,10.25
2023-11-06T01:47:24.427Z,10.24
2023-11-06T01:49:52.593Z,10.24
2023-11-06T01:52:22.750Z,10.24
2023-11-06T01:54:50.778Z,10.24
2023-11-06T01:57:20.365Z,10.24
2023-11-06T01:59:49.138Z,10.23
2023-11-06T02:02:19.812Z,10.22
2023-11-06T02:04:50.752Z,10.22
2023-11-06T02:07:19.274Z,10.22
2023-11-06T02:09:47.515Z,10.22
2023-11-06T02:12:15.473Z,10.22
2023-11-06T02:14:53.849Z,10.22
2023-11-06T02:17:23.130Z,10.22
2023-11-06T02:19:51.627Z,10.22
2023-11-06T02:22:21.191Z,10.23
2023-11-06T02:24:50.306Z,10.24
2023-11-06T02:27:19.163Z,10.24
2023-11-06T02:29:49.726Z,10.25
2023-11-06T02:32:17.821Z,10.25
2023-11-06T02:34:46.715Z,10.26
2023-11-06T02:37:15.125Z,10.27
2023-11-06T02:39:43.085Z,10.28
2023-11-06T02:42:11.310Z,10.29
2023-11-06T02:44:39.753Z,10.30
2023-11-06T02:47:08.587Z,10.32
2023-11-06T02:49:37.012Z,10.35
2023-11-06T02:52:05.239Z,10.37
2023-11-06T02:54:33.205Z,10.39
2023-11-06T02:57:01.365Z,10.41
2023-11-06T02:59:29.414Z,10.42
2023-11-06T03:01:57.393Z,10.43
2023-11-06T03:04:25.687Z,10.45
2023-11-06T03:06:53.697Z,10.46
2023-11-06T03:09:21.805Z,10.47
2023-11-06T03:11:50.028Z,10.48
2023-11-06T03:14:18.602Z,10.49
2023-11-06T03:16:46.679Z,10.51
2023-11-06T03:19:14.769Z,10.53
2023-11-06T03:21:42.906Z,10.54
2023-11-06T03:24:10.917Z,10.55
2023-11-06T03:26:38.860Z,10.55
2023-11-06T03:29:07.102Z,10.56
2023-11-06T03:31:35.057Z,10.57
2023-11-06T03:34:03.976Z,10.57
2023-11-06T03:36:32.074Z,10.58
2023-11-06T03:39:00.189Z,10.57
2023-11-06T03:41:28.301Z,10.57
2023-11-06T03:43:56.223Z,10.56
2023-11-06T03:46:24.516Z,10.56
2023-11-06T03:48:52.661Z,10.56
2023-11-06T03:51:20.577Z,10.55
2023-11-06T03:53:48.530Z,10.54
2023-11-06T03:56:16.824Z,10.53
2023-11-06T03:58:45.351Z,10.52
2023-11-06T04:01:13.495Z,10.51
2023-11-06T04:03:41.843Z,10.50
2023-11-06T04:06:10.285Z,10.50
2023-11-06T04:08:38.314Z,10.51
2023-11-06T04:11:06.461Z,10.51
2023-11-06T04:13:34.452Z,10.54
2023-11-06T04:16:04.837Z,10.54
2023-11-06T04:18:32.935Z,10.55
2023-11-06T04:21:02.186Z,10.54
2023-11-06T04:23:33.560Z,10.54
2023-11-06T04:26:02.002Z,10.55
2023-11-06T04:28:30.018Z,10.54
2023-11-06T04:30:57.948Z,10.54
2023-11-06T04:33:26.034Z,10.55
2023-11-06T04:35:54.111Z,10.55
2023-11-06T04:38:22.108Z,10.56
2023-11-06T04:40:50.486Z,10.58
2023-11-06T04:43:18.703Z,10.60
2023-11-06T04:45:46.558Z,10.61
2023-11-06T04:48:14.583Z,10.63
2023-11-06T04:50:44.287Z,10.65
2023-11-06T04:53:12.370Z,10.65
2023-11-06T04:55:40.462Z,10.65
2023-11-06T04:58:08.449Z,10.65
2023-11-06T05:00:37.047Z,10.64
2023-11-06T05:03:05.244Z,10.65
2023-11-06T05:05:33.431Z,10.65
2023-11-06T05:08:01.448Z,10.64
2023-11-06T05:10:30.556Z,10.63
2023-11-06T05:12:59.199Z,10.63
2023-11-06T05:15:27.117Z,10.62
2023-11-06T05:17:55.113Z,10.62
2023-11-06T05:20:24.287Z,10.62
2023-11-06T05:22:52.479Z,10.61
2023-11-06T05:25:20.887Z,10.61
2023-11-06T05:27:49.081Z,10.60
2023-11-06T05:30:17.008Z,10.60
2023-11-06T05:32:45.792Z,10.59
2023-11-06T05:35:13.861Z,10.59
2023-11-06T05:37:41.855Z,10.60
2023-11-06T05:40:10.557Z,10.60
2023-11-06T05:42:38.677Z,10.60
2023-11-06T05:45:10.801Z,10.61
2023-11-06T05:47:39.070Z,10.61
2023-11-06T05:50:08.009Z,10.61
2023-11-06T05:52:35.952Z,10.61
2023-11-06T05:55:05.943Z,10.60
2023-11-06T05:57:33.997Z,10.62
2023-11-06T06:00:02.585Z,10.64
2023-11-06T06:02:40.604Z,10.65
2023-11-06T06:05:08.947Z,10.66
2023-11-06T06:07:36.836Z,10.66
2023-11-06T06:10:06.212Z,10.68
2023-11-06T06:12:34.763Z,10.69
2023-11-06T06:15:03.003Z,10.71
2023-11-06T06:17:31.355Z,10.73
2023-11-06T06:19:59.412Z,10.74
2023-11-06T06:22:27.500Z,10.75
2023-11-06T06:24:55.568Z,10.75
2023-11-06T06:27:23.980Z,10.76
2023-11-06T06:29:53.472Z,10.77
2023-11-06T06:32:21.526Z,10.79
2023-11-06T06:34:49.610Z,10.81
2023-11-06T06:37:18.016Z,10.82
2023-11-06T06:39:46.275Z,10.83
2023-11-06T06:42:15.155Z,10.86
2023-11-06T06:44:43.221Z,10.88
2023-11-06T06:47:11.832Z,10.90
2023-11-06T06:49:42.696Z,10.92
2023-11-06T06:52:11.439Z,10.94
2023-11-06T06:54:40.292Z,10.95
2023-11-06T06:57:08.263Z,10.96
2023-11-06T06:59:37.303Z,10.97
2023-11-06T07:02:07.007Z,10.98
2023-11-06T07:04:35.072Z,10.99
2023-11-06T07:07:03.095Z,11.00
2023-11-06T07:09:33.518Z,11.02
2023-11-06T07:12:06.760Z,11.03
2023-11-06T07:14:35.672Z,11.05
2023-11-06T07:17:07.052Z,11.06
2023-11-06T07:19:35.086Z,11.09
2023-11-06T07:22:03.309Z,11.10
2023-11-06T07:24:31.966Z,11.12
2023-11-06T07:27:00.224Z,11.14
2023-11-06T07:29:28.887Z,11.16
2023-11-06T07:31:56.977Z,11.16
2023-11-06T07:34:25.182Z,11.18
2023-11-06T07:36:54.324Z,11.19
2023-11-06T07:39:22.501Z,11.18
2023-11-06T07:41:50.564Z,11.18
2023-11-06T07:44:21.836Z,11.18
2023-11-06T07:46:50.927Z,11.17
2023-11-06T07:49:19.412Z,11.18
2023-11-06T07:51:49.755Z,11.17
2023-11-06T07:54:17.738Z,11.18
2023-11-06T07:56:47.140Z,11.18
2023-11-06T07:59:15.201Z,11.18
2023-11-06T08:01:43.245Z,11.19
2023-11-06T08:04:11.353Z,11.20
2023-11-06T08:06:39.417Z,11.21
2023-11-06T08:09:07.900Z,11.22
2023-11-06T08:11:37.338Z,11.23
2023-11-06T08:14:06.208Z,11.24
2023-11-06T08:16:36.104Z,11.24
2023-11-06T08:19:04.418Z,11.25
2023-11-06T08:21:32.391Z,11.24
2023-11-06T08:24:01.484Z,11.24
2023-11-06T08:26:29.710Z,11.22
2023-11-06T08:28:57.895Z,11.20
2023-11-06T08:31:26.264Z,11.19
2023-11-06T08:33:54.564Z,11.15
2023-11-06T08:36:22.649Z,11.13
2023-11-06T08:38:50.536Z,11.11
2023-11-06T08:41:18.656Z,11.08
2023-11-06T08:43:47.638Z,11.05
2023-11-06T08:46:15.602Z,11.02
2023-11-06T08:48:46.726Z,10.99
2023-11-06T08:51:14.817Z,10.96
2023-11-06T08:53:42.927Z,10.96
2023-11-06T08:56:12.323Z,10.95
2023-11-06T08:58:40.285Z,10.97
2023-11-06T09:01:09.526Z,10.98
2023-11-06T09:03:40.120Z,11.00
2023-11-06T09:06:10.187Z,11.02
2023-11-06T09:08:38.640Z,11.03
2023-11-06T09:11:08.507Z,11.02
2023-11-06T09:13:37.552Z,10.97
2023-11-06T09:16:06.561Z,10.91
2023-11-06T09:18:34.717Z,10.82
2023-11-06T09:21:05.253Z,10.74
2023-11-06T09:23:33.242Z,10.65
2023-11-06T09:26:02.103Z,10.57
2023-11-06T09:28:30.038Z,10.51
2023-11-06T09:30:58.070Z,10.46
2023-11-06T09:33:26.702Z,10.42
2023-11-06T09:35:54.769Z,10.39
2023-11-06T09:38:22.869Z,10.38
2023-11-06T09:40:51.013Z,10.38
2023-11-06T09:43:19.839Z,10.39
2023-11-06T09:45:48.672Z,10.41
2023-11-06T09:48:19.615Z,10.43
2023-11-06T09:50:50.253Z,10.46
2023-11-06T09:53:19.918Z,10.49
2023-11-06T09:55:48.067Z,10.52
2023-11-06T09:58:16.680Z,10.56
2023-11-06T10:00:45.085Z,10.60
2023-11-06T10:03:14.652Z,10.64
2023-11-06T10:05:43.109Z,10.70
2023-11-06T10:08:11.445Z,10.77
2023-11-06T10:10:42.199Z,10.83
2023-11-06T10:13:13.594Z,10.90
2023-11-06T10:15:41.786Z,10.98
2023-11-06T10:18:15.806Z,11.06
2023-11-06T10:20:45.689Z,11.14
2023-11-06T10:23:24.256Z,11.22
2023-11-06T10:25:59.002Z,11.29
2023-11-06T10:28:27.720Z,11.37
2023-11-06T10:30:56.095Z,11.43
2023-11-06T10:33:25.318Z,11.49
2023-11-06T10:35:53.662Z,11.56
2023-11-06T10:38:34.647Z,11.63
2023-11-06T10:41:18.075Z,11.71
2023-11-06T10:43:57.114Z,11.80
2023-11-06T10:46:32.860Z,11.88
2023-11-06T10:49:11.495Z,11.95
2023-11-06T10:51:41.725Z,12.01
2023-11-06T10:54:11.209Z,12.08
2023-11-06T10:56:40.802Z,12.13
2023-11-06T10:59:10.107Z,12.16
2023-11-06T11:01:40.248Z,12.19
2023-11-06T11:04:12.030Z,12.21
2023-11-06T11:06:42.336Z,12.21
2023-11-06T11:09:12.687Z,12.23
2023-11-06T11:11:40.928Z,12.24
2023-11-06T11:14:14.030Z,12.24
2023-11-06T11:16:46.344Z,12.25
2023-11-06T11:19:22.623Z,12.29
2023-11-06T11:22:07.504Z,12.35
2023-11-06T11:24:47.470Z,12.43
2023-11-06T11:27:19.007Z,12.53
2023-11-06T11:29:57.861Z,12.62
2023-11-06T11:32:28.723Z,12.72
2023-11-06T11:34:58.918Z,12.81
2023-11-06T11:37:30.955Z,12.89
2023-11-06T11:40:01.441Z,12.95
2023-11-06T11:42:30.297Z,12.98
2023-11-06T11:45:00.591Z,13.01
2023-11-06T11:47:47.557Z,13.07
2023-11-06T11:50:28.494Z,13.14
2023-11-06T11:52:57.552Z,13.22
2023-11-06T11:55:43.492Z,13.28
2023-11-06T11:58:12.914Z,13.28
2023-11-06T12:00:46.013Z,13.24
2023-11-06T12:03:18.021Z,13.16
2023-11-06T12:05:56.948Z,13.09
2023-11-06T12:08:30.071Z,13.03
2023-11-06T12:11:11.474Z,12.99
2023-11-06T12:13:40.443Z,12.96
2023-11-06T12:16:09.407Z,12.93
2023-11-06T12:18:44.316Z,12.90
2023-11-06T12:21:15.845Z,12.88
2023-11-06T12:23:44.417Z,12.85
2023-11-06T12:26:16.216Z,12.84
2023-11-06T12:28:49.456Z,12.82
2023-11-06T12:31:21.154Z,12.81
2023-11-06T12:33:49.656Z,12.82
2023-11-06T12:36:33.401Z,12.82
2023-11-06T12:39:03.387Z,12.84
2023-11-06T12:41:35.289Z,12.86
2023-11-06T12:44:04.469Z,12.88
2023-11-06T12:49:19.754Z,12.91
2023-11-06T12:51:51.316Z,12.91
2023-11-06T12:54:25.854Z,12.91
2023-11-06T12:56:55.023Z,12.92
2023-11-06T12:59:23.491Z,12.95
2023-11-06T13:01:52.835Z,12.96
2023-11-06T13:04:21.729Z,12.94
2023-11-06T13:06:49.888Z,12.92
2023-11-06T13:09:18.474Z,12.89
2023-11-06T13:11:46.604Z,12.86
2023-11-06T13:14:16.217Z,12.83
2023-11-06T13:16:44.613Z,12.80
2023-11-06T13:19:14.215Z,12.78
2023-11-06T13:21:42.627Z,12.76
2023-11-06T13:24:10.571Z,12.74
2023-11-06T13:26:39.074Z,12.73
2023-11-06T13:29:09.270Z,12.73
2023-11-06T13:31:37.313Z,12.74
2023-11-06T13:34:05.544Z,12.76
2023-11-06T13:36:34.588Z,12.76
2023-11-06T13:39:02.560Z,12.78
2023-11-06T13:41:30.923Z,12.79
2023-11-06T13:43:59.417Z,12.79
2023-11-06T13:46:29.983Z,12.81
2023-11-06T13:48:58.670Z,12.80
2023-11-06T13:51:27.910Z,12.80
2023-11-06T13:54:03.406Z,12.78
2023-11-06T13:56:39.419Z,12.77
2023-11-06T13:59:11.100Z,12.74
2023-11-06T14:01:50.058Z,12.71
2023-11-06T14:04:19.112Z,12.69
2023-11-06T14:06:50.299Z,12.65
2023-11-06T14:09:40.144Z,12.62
2023-11-06T14:12:12.461Z,12.59
2023-11-06T14:14:41.525Z,12.56
2023-11-06T14:17:11.457Z,12.53
2023-11-06T14:19:42.754Z,12.50
2023-11-06T14:22:11.909Z,12.47
2023-11-06T14:24:40.453Z,12.46
2023-11-06T14:27:09.126Z,12.44
2023-11-06T14:29:37.888Z,12.41
2023-11-06T14:32:07.151Z,12.39
2023-11-06T14:34:35.441Z,12.36
2023-11-06T14:37:03.601Z,12.33
2023-11-06T14:39:31.605Z,12.31
2023-11-06T14:41:59.698Z,12.29
2023-11-06T14:44:29.233Z,12.27
2023-11-06T14:46:57.915Z,12.25
2023-11-06T14:49:26.242Z,12.22
2023-11-06T14:51:54.372Z,12.19
2023-11-06T14:54:22.548Z,12.17
2023-11-06T14:56:50.622Z,12.14
2023-11-06T14:59:19.200Z,12.11
2023-11-06T15:01:48.562Z,12.07
2023-11-06T15:04:16.896Z,12.05
2023-11-06T15:06:44.992Z,12.02
2023-11-06T15:09:12.957Z,11.99
2023-11-06T15:11:40.901Z,11.96
2023-11-06T15:14:10.549Z,11.95
2023-11-06T15:16:38.558Z,11.92
2023-11-06T15:19:07.694Z,11.91
2023-11-06T15:21:35.871Z,11.89
2023-11-06T15:24:04.023Z,11.88
2023-11-06T15:26:32.992Z,11.87
2023-11-06T15:29:01.057Z,11.85
2023-11-06T15:31:29.851Z,11.84
2023-11-06T15:33:58.146Z,11.82
2023-11-06T15:36:26.288Z,11.79
2023-11-06T15:38:54.834Z,11.76
2023-11-06T15:41:23.674Z,11.73
2023-11-06T15:43:51.553Z,11.68
2023-11-06T15:46:27.180Z,11.64
2023-11-06T15:49:00.228Z,11.59
2023-11-06T15:51:28.590Z,11.54
2023-11-06T15:53:57.626Z,11.49
2023-11-06T15:56:26.095Z,11.44
2023-11-06T15:58:54.098Z,11.40
2023-11-06T16:01:22.197Z,11.35
2023-11-06T16:03:50.540Z,11.31
2023-11-06T16:06:18.652Z,11.27
2023-11-06T16:08:47.059Z,11.23
2023-11-06T16:11:16.216Z,11.18
2023-11-06T16:13:50.274Z,11.14
2023-11-06T16:16:18.766Z,11.10
2023-11-06T16:18:46.964Z,11.05
2023-11-06T16:21:15.056Z,11.01
2023-11-06T16:23:43.489Z,10.96
2023-11-06T16:26:11.616Z,10.93
2023-11-06T16:28:40.354Z,10.92
2023-11-06T16:31:09.455Z,10.89
2023-11-06T16:33:38.695Z,10.88
2023-11-06T16:36:12.278Z,10.85
2023-11-06T16:38:43.307Z,10.81
2023-11-06T16:41:11.340Z,10.77
2023-11-06T16:43:39.403Z,10.74
2023-11-06T16:46:10.151Z,10.69
2023-11-06T16:48:39.348Z,10.64
2023-11-06T16:51:07.938Z,10.60
2023-11-06T16:53:36.169Z,10.56
2023-11-06T16:56:04.437Z,10.52
2023-11-06T16:58:32.532Z,10.49
2023-11-06T17:01:00.524Z,10.46
2023-11-06T17:03:29.213Z,10.43
2023-11-06T17:05:59.435Z,10.39
2023-11-06T17:08:27.949Z,10.36
2023-11-06T17:10:56.657Z,10.34
2023-11-06T17:13:25.642Z,10.30
2023-11-06T17:15:53.813Z,10.27
2023-11-06T17:18:22.191Z,10.23
2023-11-06T17:20:50.703Z,10.20
2023-11-06T17:23:18.898Z,10.19
2023-11-06T17:25:47.573Z,10.17
2023-11-06T17:28:15.668Z,10.16
2023-11-06T17:30:43.988Z,10.15
2023-11-06T17:33:12.129Z,10.15
2023-11-06T17:35:40.495Z,10.15
2023-11-06T17:38:09.842Z,10.15
2023-11-06T17:40:42.206Z,10.14
2023-11-06T17:43:11.255Z,10.15
2023-11-06T17:45:39.493Z,10.15
2023-11-06T17:48:09.764Z,10.15
2023-11-06T17:50:38.463Z,10.16
2023-11-06T17:53:06.576Z,10.16
2023-11-06T17:55:34.928Z,10.17
2023-11-06T17:58:03.178Z,10.17
2023-11-06T18:00:31.143Z,10.17
2023-11-06T18:02:59.409Z,10.17
2023-11-06T18:05:28.077Z,10.17
2023-11-06T18:07:56.070Z,10.17
2023-11-06T18:10:24.299Z,10.16
2023-11-06T18:12:52.724Z,10.15
2023-11-06T18:15:20.829Z,10.15
2023-11-06T18:17:49.223Z,10.14
2023-11-06T18:20:19.462Z,10.13
2023-11-06T18:22:48.445Z,10.12
2023-11-06T18:25:18.597Z,10.10
2023-11-06T18:27:47.165Z,10.08
2023-11-06T18:30:15.542Z,10.06
2023-11-06T18:32:45.031Z,10.04
2023-11-06T18:35:13.408Z,10.00
2023-11-06T18:37:41.646Z,9.99
2023-11-06T18:40:10.421Z,9.97
2023-11-06T18:42:41.555Z,9.95
2023-11-06T18:45:10.494Z,9.94
2023-11-06T18:47:38.800Z,9.92
2023-11-06T18:50:07.450Z,9.91
2023-11-06T18:52:35.782Z,9.91
2023-11-06T18:55:05.457Z,9.90
2023-11-06T18:57:33.563Z,9.89
2023-11-06T19:00:01.551Z,9.87
2023-11-06T19:02:29.874Z,9.86
2023-11-06T19:04:58.628Z,9.85
2023-11-06T19:07:27.866Z,9.85
2023-11-06T19:09:56.606Z,9.85
2023-11-06T19:12:24.744Z,9.85
2023-11-06T19:14:52.782Z,9.86
2023-11-06T19:17:20.988Z,9.86
2023-11-06T19:19:49.728Z,9.87
2023-11-06T19:22:18.413Z,9.89
2023-11-06T19:24:53.085Z,9.89
2023-11-06T19:27:25.615Z,9.90
2023-11-06T19:29:55.991Z,9.90
2023-11-06T19:32:24.866Z,9.91
2023-11-06T19:34:53.169Z,9.91
2023-11-06T19:37:21.343Z,9.91
2023-11-06T19:39:49.729Z,9.90
2023-11-06T19:42:19.572Z,9.89
2023-11-06T19:44:49.370Z,9.88
2023-11-06T19:47:17.504Z,9.88
2023-11-06T19:49:45.549Z,9.88
2023-11-06T19:52:14.887Z,9.88
2023-11-06T19:54:43.174Z,9.88
2023-11-06T19:57:11.664Z,9.89
2023-11-06T19:59:47.241Z,9.90
2023-11-06T20:02:26.452Z,9.93
2023-11-06T20:04:56.287Z,9.95
2023-11-06T20:07:24.384Z,9.96
2023-11-06T20:09:52.484Z,9.98
2023-11-06T20:12:20.626Z,9.99
2023-11-06T20:14:48.716Z,10.00
2023-11-06T20:17:16.950Z,10.01
2023-11-06T20:19:45.057Z,10.01
2023-11-06T20:22:14.010Z,10.03
2023-11-06T20:24:43.862Z,10.04
2023-11-06T20:27:12.039Z,10.05
2023-11-06T20:29:40.340Z,10.06
2023-11-06T20:32:08.586Z,10.08
2023-11-06T20:34:36.649Z,10.10
2023-11-06T20:37:04.795Z,10.10
2023-11-06T20:39:33.017Z,10.12
2023-11-06T20:42:01.304Z,10.13
2023-11-06T20:44:30.376Z,10.14
2023-11-06T20:46:58.471Z,10.15
2023-11-06T20:49:26.594Z,10.16
2023-11-06T20:51:54.727Z,10.16
2023-11-06T20:54:23.309Z,10.18
2023-11-06T20:56:51.427Z,10.19
2023-11-06T20:59:19.541Z,10.18
2023-11-06T21:01:47.629Z,10.20
2023-11-06T21:04:16.776Z,10.21
2023-11-06T21:06:44.996Z,10.22
2023-11-06T21:09:15.254Z,10.22
2023-11-06T21:11:43.468Z,10.23
2023-11-06T21:14:12.427Z,10.24
2023-11-06T21:16:40.854Z,10.25
2023-11-06T21:19:09.045Z,10.26
2023-11-06T21:21:37.119Z,10.27
2023-11-06T21:24:07.794Z,10.27
2023-11-06T21:26:36.084Z,10.28
2023-11-06T21:29:04.172Z,10.28
2023-11-06T21:31:32.387Z,10.29
2023-11-06T21:34:02.428Z,10.29
2023-11-06T21:36:30.716Z,10.29
2023-11-06T21:38:59.288Z,10.29
2023-11-06T21:41:27.952Z,10.29
2023-11-06T21:43:56.753Z,10.29
2023-11-06T21:46:24.968Z,10.29
2023-11-06T21:48:53.452Z,10.29
2023-11-06T21:51:21.788Z,10.27
2023-11-06T21:53:50.012Z,10.26
2023-11-06T21:56:18.279Z,10.25
2023-11-06T21:58:49.808Z,10.23
2023-11-06T22:01:19.954Z,10.21
2023-11-06T22:03:48.213Z,10.20
2023-11-06T22:06:16.379Z,10.20
2023-11-06T22:08:44.715Z,10.19
2023-11-06T22:11:12.820Z,10.18
2023-11-06T22:13:40.728Z,10.18
2023-11-06T22:16:08.828Z,10.19
2023-11-06T22:18:36.897Z,10.19
2023-11-06T22:21:05.332Z,10.20
2023-11-06T22:23:34.116Z,10.20
2023-11-06T22:26:02.602Z,10.22
2023-11-06T22:28:31.501Z,10.22
2023-11-06T22:30:59.736Z,10.24
2023-11-06T22:33:27.995Z,10.25
2023-11-06T22:35:56.293Z,10.26
2023-11-06T22:38:24.280Z,10.26
2023-11-06T22:40:52.222Z,10.25
2023-11-06T22:43:20.229Z,10.24
2023-11-06T22:45:48.570Z,10.23
2023-11-06T22:48:16.631Z,10.22
2023-11-06T22:50:45.640Z,10.21
2023-11-06T22:53:19.927Z,10.19
2023-11-06T22:55:48.232Z,10.17
2023-11-06T22:58:16.446Z,10.13
2023-11-06T23:00:47.938Z,10.11
2023-11-06T23:03:16.386Z,10.07
2023-11-06T23:05:46.837Z,10.03
2023-11-06T23:08:15.387Z,10.00
2023-11-06T23:10:44.153Z,9.97
2023-11-06T23:13:13.025Z,9.93
2023-11-06T23:15:41.102Z,9.89
2023-11-06T23:18:09.486Z,9.84
2023-11-06T23:20:37.698Z,9.80
2023-11-06T23:23:06.889Z,9.76
2023-11-06T23:25:38.840Z,9.72
2023-11-06T23:28:08.169Z,9.68
2023-11-06T23:30:36.235Z,9.64
2023-11-06T23:33:04.641Z,9.60
2023-11-06T23:35:36.138Z,9.57
2023-11-06T23:38:04.390Z,9.53
2023-11-06T23:40:33.868Z,9.50
2023-11-06T23:43:02.998Z,9.47
2023-11-06T23:45:31.234Z,9.44
2023-11-06T23:47:59.443Z,9.42
2023-11-06T23:50:27.850Z,9.39
2023-11-06T23:52:56.166Z,9.36
2023-11-06T23:55:24.520Z,9.33
2023-11-06T23:57:52.613Z,9.31
